sensor_id;sensor_type;location;lat;lon;timestamp;P1;durP1;ratioP1;P2;durP2;ratioP2
68247;SDS011;55064;49.636;12.164;2023-07-09T00:00:48;9.52;;;5.35;;
68247;SDS011;55064;49.636;12.164;2023-07-09T00:03:14;9.13;;;5.50;;
68247;SDS011;55064;49.636;12.164;2023-07-09T00:05:42;9.30;;;5.33;;
68247;SDS011;55064;49.636;12.164;2023-07-09T00:08:28;9.15;;;5.97;;
68247;SDS011;55064;49.636;12.164;2023-07-09T00:10:56;9.18;;;5.75;;
68247;SDS011;55064;49.636;12.164;2023-07-09T00:13:23;9.63;;;5.82;;
68247;SDS011;55064;49.636;12.164;2023-07-09T00:15:51;9.40;;;5.80;;
68247;SDS011;55064;49.636;12.164;2023-07-09T00:18:17;9.83;;;5.83;;
68247;SDS011;55064;49.636;12.164;2023-07-09T00:20:43;10.00;;;5.80;;
68247;SDS011;55064;49.636;12.164;2023-07-09T00:23:10;10.75;;;5.45;;
68247;SDS011;55064;49.636;12.164;2023-07-09T00:25:39;9.00;;;5.53;;
68247;SDS011;55064;49.636;12.164;2023-07-09T00:28:12;10.80;;;6.13;;
68247;SDS011;55064;49.636;12.164;2023-07-09T00:30:43;10.73;;;5.82;;
68247;SDS011;55064;49.636;12.164;2023-07-09T00:33:16;10.13;;;5.80;;
68247;SDS011;55064;49.636;12.164;2023-07-09T00:35:46;9.10;;;5.60;;
68247;SDS011;55064;49.636;12.164;2023-07-09T00:44:24;9.68;;;6.07;;
68247;SDS011;55064;49.636;12.164;2023-07-09T00:49:26;10.13;;;6.40;;
68247;SDS011;55064;49.636;12.164;2023-07-09T00:51:55;9.48;;;5.65;;
68247;SDS011;55064;49.636;12.164;2023-07-09T00:54:34;9.07;;;6.00;;
68247;SDS011;55064;49.636;12.164;2023-07-09T00:57:21;11.77;;;5.80;;
68247;SDS011;55064;49.636;12.164;2023-07-09T00:59:56;9.70;;;5.95;;
68247;SDS011;55064;49.636;12.164;2023-07-09T01:08:51;10.33;;;6.17;;
68247;SDS011;55064;49.636;12.164;2023-07-09T01:14:40;10.80;;;6.47;;
68247;SDS011;55064;49.636;12.164;2023-07-09T01:23:49;12.13;;;6.63;;
68247;SDS011;55064;49.636;12.164;2023-07-09T01:29:38;11.60;;;6.57;;
68247;SDS011;55064;49.636;12.164;2023-07-09T01:32:03;9.82;;;6.50;;
68247;SDS011;55064;49.636;12.164;2023-07-09T01:34:31;9.97;;;6.37;;
68247;SDS011;55064;49.636;12.164;2023-07-09T01:36:57;10.93;;;6.22;;
68247;SDS011;55064;49.636;12.164;2023-07-09T01:39:24;10.10;;;6.20;;
68247;SDS011;55064;49.636;12.164;2023-07-09T01:41:53;11.70;;;6.63;;
68247;SDS011;55064;49.636;12.164;2023-07-09T01:44:19;10.40;;;6.72;;
68247;SDS011;55064;49.636;12.164;2023-07-09T01:46:47;10.07;;;6.47;;
68247;SDS011;55064;49.636;12.164;2023-07-09T01:49:13;11.07;;;6.65;;
68247;SDS011;55064;49.636;12.164;2023-07-09T01:51:41;11.23;;;6.90;;
68247;SDS011;55064;49.636;12.164;2023-07-09T01:54:11;10.90;;;6.43;;
68247;SDS011;55064;49.636;12.164;2023-07-09T01:56:43;10.90;;;7.18;;
68247;SDS011;55064;49.636;12.164;2023-07-09T01:59:08;10.83;;;7.00;;
68247;SDS011;55064;49.636;12.164;2023-07-09T02:01:36;10.98;;;7.20;;
68247;SDS011;55064;49.636;12.164;2023-07-09T02:04:06;11.10;;;6.68;;
68247;SDS011;55064;49.636;12.164;2023-07-09T02:06:32;11.23;;;6.75;;
68247;SDS011;55064;49.636;12.164;2023-07-09T02:08:58;11.83;;;7.50;;
68247;SDS011;55064;49.636;12.164;2023-07-09T02:11:25;10.40;;;7.10;;
68247;SDS011;55064;49.636;12.164;2023-07-09T02:13:52;12.05;;;7.30;;
68247;SDS011;55064;49.636;12.164;2023-07-09T02:16:17;12.27;;;7.30;;
68247;SDS011;55064;49.636;12.164;2023-07-09T02:18:43;11.67;;;7.40;;
68247;SDS011;55064;49.636;12.164;2023-07-09T02:21:10;12.13;;;7.47;;
68247;SDS011;55064;49.636;12.164;2023-07-09T02:23:42;10.98;;;7.40;;
68247;SDS011;55064;49.636;12.164;2023-07-09T02:26:07;11.75;;;7.18;;
68247;SDS011;55064;49.636;12.164;2023-07-09T02:28:36;10.52;;;7.10;;
68247;SDS011;55064;49.636;12.164;2023-07-09T02:31:02;14.77;;;7.68;;
68247;SDS011;55064;49.636;12.164;2023-07-09T02:33:30;11.43;;;6.70;;
68247;SDS011;55064;49.636;12.164;2023-07-09T02:35:58;10.60;;;6.88;;
68247;SDS011;55064;49.636;12.164;2023-07-09T02:38:23;9.73;;;6.37;;
68247;SDS011;55064;49.636;12.164;2023-07-09T02:40:48;12.47;;;6.93;;
68247;SDS011;55064;49.636;12.164;2023-07-09T02:43:16;10.00;;;6.90;;
68247;SDS011;55064;49.636;12.164;2023-07-09T02:45:42;12.70;;;7.40;;
68247;SDS011;55064;49.636;12.164;2023-07-09T02:48:08;11.20;;;7.07;;
68247;SDS011;55064;49.636;12.164;2023-07-09T02:50:35;12.45;;;7.30;;
68247;SDS011;55064;49.636;12.164;2023-07-09T02:53:02;11.17;;;7.80;;
68247;SDS011;55064;49.636;12.164;2023-07-09T02:55:27;13.00;;;7.80;;
68247;SDS011;55064;49.636;12.164;2023-07-09T02:57:56;14.95;;;7.65;;
68247;SDS011;55064;49.636;12.164;2023-07-09T03:00:23;11.20;;;7.50;;
68247;SDS011;55064;49.636;12.164;2023-07-09T03:02:48;11.30;;;7.07;;
68247;SDS011;55064;49.636;12.164;2023-07-09T03:05:13;11.97;;;7.33;;
68247;SDS011;55064;49.636;12.164;2023-07-09T03:07:39;10.37;;;6.90;;
68247;SDS011;55064;49.636;12.164;2023-07-09T03:10:05;11.30;;;7.20;;
68247;SDS011;55064;49.636;12.164;2023-07-09T03:12:30;9.82;;;6.68;;
68247;SDS011;55064;49.636;12.164;2023-07-09T03:14:56;11.93;;;7.10;;
68247;SDS011;55064;49.636;12.164;2023-07-09T03:17:22;12.83;;;7.30;;
68247;SDS011;55064;49.636;12.164;2023-07-09T03:19:47;11.88;;;7.63;;
68247;SDS011;55064;49.636;12.164;2023-07-09T03:22:14;11.67;;;7.57;;
68247;SDS011;55064;49.636;12.164;2023-07-09T03:24:39;11.02;;;7.18;;
68247;SDS011;55064;49.636;12.164;2023-07-09T03:27:07;10.35;;;7.05;;
68247;SDS011;55064;49.636;12.164;2023-07-09T03:29:35;11.25;;;7.20;;
68247;SDS011;55064;49.636;12.164;2023-07-09T03:32:00;11.20;;;7.35;;
68247;SDS011;55064;49.636;12.164;2023-07-09T03:34:28;11.57;;;6.63;;
68247;SDS011;55064;49.636;12.164;2023-07-09T03:36:54;10.93;;;7.28;;
68247;SDS011;55064;49.636;12.164;2023-07-09T03:39:22;11.07;;;7.20;;
68247;SDS011;55064;49.636;12.164;2023-07-09T03:41:49;13.77;;;7.28;;
68247;SDS011;55064;49.636;12.164;2023-07-09T03:44:15;12.77;;;7.30;;
68247;SDS011;55064;49.636;12.164;2023-07-09T03:46:42;10.63;;;6.87;;
68247;SDS011;55064;49.636;12.164;2023-07-09T03:49:08;11.40;;;6.90;;
68247;SDS011;55064;49.636;12.164;2023-07-09T03:51:34;11.60;;;7.07;;
68247;SDS011;55064;49.636;12.164;2023-07-09T03:53:59;11.00;;;7.13;;
68247;SDS011;55064;49.636;12.164;2023-07-09T03:56:27;14.07;;;7.80;;
68247;SDS011;55064;49.636;12.164;2023-07-09T03:58:52;11.50;;;7.50;;
68247;SDS011;55064;49.636;12.164;2023-07-09T04:01:19;13.63;;;8.00;;
68247;SDS011;55064;49.636;12.164;2023-07-09T04:03:45;13.03;;;7.67;;
68247;SDS011;55064;49.636;12.164;2023-07-09T04:06:11;11.27;;;7.45;;
68247;SDS011;55064;49.636;12.164;2023-07-09T04:08:37;12.53;;;7.60;;
68247;SDS011;55064;49.636;12.164;2023-07-09T04:11:03;11.63;;;7.82;;
68247;SDS011;55064;49.636;12.164;2023-07-09T04:13:30;12.88;;;7.55;;
68247;SDS011;55064;49.636;12.164;2023-07-09T04:15:56;11.80;;;8.20;;
68247;SDS011;55064;49.636;12.164;2023-07-09T04:18:23;11.73;;;8.50;;
68247;SDS011;55064;49.636;12.164;2023-07-09T04:20:49;12.38;;;8.30;;
68247;SDS011;55064;49.636;12.164;2023-07-09T04:23:16;13.52;;;8.63;;
68247;SDS011;55064;49.636;12.164;2023-07-09T04:25:43;11.77;;;7.50;;
68247;SDS011;55064;49.636;12.164;2023-07-09T04:28:09;12.48;;;7.97;;
68247;SDS011;55064;49.636;12.164;2023-07-09T04:30:34;11.50;;;8.33;;
68247;SDS011;55064;49.636;12.164;2023-07-09T04:33:00;11.87;;;8.67;;
68247;SDS011;55064;49.636;12.164;2023-07-09T04:35:28;12.43;;;8.57;;
68247;SDS011;55064;49.636;12.164;2023-07-09T04:37:53;11.93;;;8.30;;
68247;SDS011;55064;49.636;12.164;2023-07-09T04:40:21;11.32;;;8.15;;
68247;SDS011;55064;49.636;12.164;2023-07-09T04:42:46;12.27;;;8.33;;
68247;SDS011;55064;49.636;12.164;2023-07-09T04:45:12;12.10;;;7.97;;
68247;SDS011;55064;49.636;12.164;2023-07-09T04:47:38;12.60;;;8.37;;
68247;SDS011;55064;49.636;12.164;2023-07-09T04:50:05;11.55;;;8.05;;
68247;SDS011;55064;49.636;12.164;2023-07-09T04:52:32;13.73;;;8.30;;
68247;SDS011;55064;49.636;12.164;2023-07-09T04:55:00;11.02;;;7.45;;
68247;SDS011;55064;49.636;12.164;2023-07-09T04:57:26;10.80;;;8.00;;
68247;SDS011;55064;49.636;12.164;2023-07-09T04:59:52;11.48;;;7.65;;
68247;SDS011;55064;49.636;12.164;2023-07-09T05:02:18;11.53;;;7.90;;
68247;SDS011;55064;49.636;12.164;2023-07-09T05:04:48;11.23;;;7.50;;
68247;SDS011;55064;49.636;12.164;2023-07-09T05:07:15;11.73;;;7.93;;
68247;SDS011;55064;49.636;12.164;2023-07-09T05:09:43;11.87;;;8.73;;
68247;SDS011;55064;49.636;12.164;2023-07-09T05:12:09;11.57;;;8.50;;
68247;SDS011;55064;49.636;12.164;2023-07-09T05:14:34;12.47;;;8.60;;
68247;SDS011;55064;49.636;12.164;2023-07-09T05:17:00;12.98;;;9.00;;
68247;SDS011;55064;49.636;12.164;2023-07-09T05:19:27;14.07;;;9.27;;
68247;SDS011;55064;49.636;12.164;2023-07-09T05:21:53;13.10;;;9.02;;
68247;SDS011;55064;49.636;12.164;2023-07-09T05:24:18;12.77;;;9.37;;
68247;SDS011;55064;49.636;12.164;2023-07-09T05:26:43;13.30;;;9.75;;
68247;SDS011;55064;49.636;12.164;2023-07-09T05:29:09;12.73;;;8.67;;
68247;SDS011;55064;49.636;12.164;2023-07-09T05:31:37;12.52;;;8.38;;
68247;SDS011;55064;49.636;12.164;2023-07-09T05:34:03;12.13;;;8.07;;
68247;SDS011;55064;49.636;12.164;2023-07-09T05:38:59;12.45;;;8.27;;
68247;SDS011;55064;49.636;12.164;2023-07-09T05:41:24;12.70;;;9.10;;
68247;SDS011;55064;49.636;12.164;2023-07-09T05:43:50;16.43;;;9.10;;
68247;SDS011;55064;49.636;12.164;2023-07-09T05:46:18;12.60;;;8.90;;
68247;SDS011;55064;49.636;12.164;2023-07-09T05:48:48;13.00;;;8.80;;
68247;SDS011;55064;49.636;12.164;2023-07-09T05:51:15;13.23;;;9.53;;
68247;SDS011;55064;49.636;12.164;2023-07-09T05:53:41;12.13;;;8.75;;
68247;SDS011;55064;49.636;12.164;2023-07-09T05:56:07;13.25;;;8.40;;
68247;SDS011;55064;49.636;12.164;2023-07-09T05:58:32;11.23;;;8.20;;
68247;SDS011;55064;49.636;12.164;2023-07-09T06:00:58;12.13;;;8.50;;
68247;SDS011;55064;49.636;12.164;2023-07-09T06:03:24;14.63;;;8.53;;
68247;SDS011;55064;49.636;12.164;2023-07-09T06:05:51;11.70;;;8.52;;
68247;SDS011;55064;49.636;12.164;2023-07-09T06:08:17;14.00;;;9.07;;
68247;SDS011;55064;49.636;12.164;2023-07-09T06:10:52;13.73;;;9.13;;
68247;SDS011;55064;49.636;12.164;2023-07-09T06:13:22;12.35;;;8.80;;
68247;SDS011;55064;49.636;12.164;2023-07-09T06:15:48;12.75;;;8.18;;
68247;SDS011;55064;49.636;12.164;2023-07-09T06:18:17;13.05;;;8.85;;
68247;SDS011;55064;49.636;12.164;2023-07-09T06:20:46;12.50;;;8.35;;
68247;SDS011;55064;49.636;12.164;2023-07-09T06:23:14;12.67;;;8.47;;
68247;SDS011;55064;49.636;12.164;2023-07-09T06:25:40;12.95;;;8.25;;
68247;SDS011;55064;49.636;12.164;2023-07-09T06:28:07;11.93;;;8.77;;
68247;SDS011;55064;49.636;12.164;2023-07-09T06:30:37;10.70;;;7.77;;
68247;SDS011;55064;49.636;12.164;2023-07-09T06:33:05;11.52;;;8.25;;
68247;SDS011;55064;49.636;12.164;2023-07-09T06:35:30;13.67;;;8.10;;
68247;SDS011;55064;49.636;12.164;2023-07-09T06:37:58;12.32;;;8.77;;
68247;SDS011;55064;49.636;12.164;2023-07-09T06:40:24;13.20;;;8.37;;
68247;SDS011;55064;49.636;12.164;2023-07-09T06:42:49;14.25;;;8.48;;
68247;SDS011;55064;49.636;12.164;2023-07-09T06:45:15;12.18;;;8.43;;
68247;SDS011;55064;49.636;12.164;2023-07-09T06:47:42;11.73;;;8.40;;
68247;SDS011;55064;49.636;12.164;2023-07-09T06:50:07;11.43;;;8.00;;
68247;SDS011;55064;49.636;12.164;2023-07-09T06:52:35;11.33;;;7.90;;
68247;SDS011;55064;49.636;12.164;2023-07-09T06:55:02;11.85;;;8.18;;
68247;SDS011;55064;49.636;12.164;2023-07-09T06:57:29;11.65;;;7.93;;
68247;SDS011;55064;49.636;12.164;2023-07-09T06:59:54;11.85;;;8.23;;
68247;SDS011;55064;49.636;12.164;2023-07-09T07:02:20;10.90;;;7.80;;
68247;SDS011;55064;49.636;12.164;2023-07-09T07:04:51;11.00;;;8.20;;
68247;SDS011;55064;49.636;12.164;2023-07-09T07:07:17;11.15;;;8.55;;
68247;SDS011;55064;49.636;12.164;2023-07-09T07:09:47;11.88;;;8.40;;
68247;SDS011;55064;49.636;12.164;2023-07-09T07:12:25;10.77;;;7.93;;
68247;SDS011;55064;49.636;12.164;2023-07-09T07:14:52;12.00;;;8.10;;
68247;SDS011;55064;49.636;12.164;2023-07-09T07:17:18;10.90;;;7.80;;
68247;SDS011;55064;49.636;12.164;2023-07-09T07:19:45;11.63;;;8.00;;
68247;SDS011;55064;49.636;12.164;2023-07-09T07:22:12;11.33;;;8.07;;
68247;SDS011;55064;49.636;12.164;2023-07-09T07:24:38;11.98;;;8.02;;
68247;SDS011;55064;49.636;12.164;2023-07-09T07:27:05;11.55;;;8.25;;
68247;SDS011;55064;49.636;12.164;2023-07-09T07:29:31;12.63;;;7.63;;
68247;SDS011;55064;49.636;12.164;2023-07-09T07:31:56;11.93;;;8.20;;
68247;SDS011;55064;49.636;12.164;2023-07-09T07:34:22;11.60;;;8.07;;
68247;SDS011;55064;49.636;12.164;2023-07-09T07:36:50;11.27;;;7.78;;
68247;SDS011;55064;49.636;12.164;2023-07-09T07:39:16;10.60;;;7.67;;
68247;SDS011;55064;49.636;12.164;2023-07-09T07:41:42;11.43;;;7.90;;
68247;SDS011;55064;49.636;12.164;2023-07-09T07:44:10;10.15;;;7.30;;
68247;SDS011;55064;49.636;12.164;2023-07-09T07:46:36;12.73;;;7.63;;
68247;SDS011;55064;49.636;12.164;2023-07-09T07:49:01;11.52;;;7.43;;
68247;SDS011;55064;49.636;12.164;2023-07-09T07:51:27;12.33;;;8.37;;
68247;SDS011;55064;49.636;12.164;2023-07-09T07:53:53;11.07;;;7.40;;
68247;SDS011;55064;49.636;12.164;2023-07-09T07:56:18;11.93;;;8.10;;
68247;SDS011;55064;49.636;12.164;2023-07-09T07:58:43;11.40;;;8.33;;
68247;SDS011;55064;49.636;12.164;2023-07-09T08:01:09;11.87;;;7.80;;
68247;SDS011;55064;49.636;12.164;2023-07-09T08:03:35;10.90;;;7.90;;
68247;SDS011;55064;49.636;12.164;2023-07-09T08:06:00;11.85;;;7.88;;
68247;SDS011;55064;49.636;12.164;2023-07-09T08:08:26;11.45;;;8.13;;
68247;SDS011;55064;49.636;12.164;2023-07-09T08:10:51;12.97;;;8.73;;
68247;SDS011;55064;49.636;12.164;2023-07-09T08:13:25;11.15;;;7.78;;
68247;SDS011;55064;49.636;12.164;2023-07-09T08:15:51;11.90;;;7.93;;
68247;SDS011;55064;49.636;12.164;2023-07-09T08:18:16;11.60;;;8.20;;
68247;SDS011;55064;49.636;12.164;2023-07-09T08:20:45;11.45;;;7.55;;
68247;SDS011;55064;49.636;12.164;2023-07-09T08:23:10;10.32;;;7.60;;
68247;SDS011;55064;49.636;12.164;2023-07-09T08:28:22;12.43;;;7.80;;
68247;SDS011;55064;49.636;12.164;2023-07-09T08:30:48;10.45;;;7.97;;
68247;SDS011;55064;49.636;12.164;2023-07-09T08:33:18;12.53;;;8.33;;
68247;SDS011;55064;49.636;12.164;2023-07-09T08:35:44;10.73;;;7.63;;
68247;SDS011;55064;49.636;12.164;2023-07-09T08:38:16;12.13;;;7.70;;
68247;SDS011;55064;49.636;12.164;2023-07-09T08:46:20;11.57;;;6.77;;
68247;SDS011;55064;49.636;12.164;2023-07-09T08:48:55;13.15;;;7.05;;
68247;SDS011;55064;49.636;12.164;2023-07-09T08:54:02;10.70;;;6.80;;
68247;SDS011;55064;49.636;12.164;2023-07-09T08:56:31;10.00;;;7.00;;
68247;SDS011;55064;49.636;12.164;2023-07-09T08:59:00;12.33;;;7.40;;
68247;SDS011;55064;49.636;12.164;2023-07-09T09:01:37;10.13;;;7.07;;
68247;SDS011;55064;49.636;12.164;2023-07-09T09:04:20;8.85;;;6.40;;
68247;SDS011;55064;49.636;12.164;2023-07-09T09:06:51;9.93;;;6.50;;
68247;SDS011;55064;49.636;12.164;2023-07-09T09:09:49;9.32;;;6.30;;
68247;SDS011;55064;49.636;12.164;2023-07-09T09:12:23;8.63;;;6.23;;
68247;SDS011;55064;49.636;12.164;2023-07-09T09:17:46;10.25;;;6.53;;
68247;SDS011;55064;49.636;12.164;2023-07-09T09:20:19;9.30;;;6.05;;
68247;SDS011;55064;49.636;12.164;2023-07-09T09:22:53;9.68;;;6.20;;
68247;SDS011;55064;49.636;12.164;2023-07-09T09:25:29;9.63;;;7.13;;
68247;SDS011;55064;49.636;12.164;2023-07-09T09:28:01;10.43;;;6.20;;
68247;SDS011;55064;49.636;12.164;2023-07-09T09:30:27;11.05;;;7.00;;
68247;SDS011;55064;49.636;12.164;2023-07-09T09:32:59;8.48;;;6.38;;
68247;SDS011;55064;49.636;12.164;2023-07-09T09:35:30;10.85;;;5.82;;
68247;SDS011;55064;49.636;12.164;2023-07-09T09:37:57;8.57;;;5.87;;
68247;SDS011;55064;49.636;12.164;2023-07-09T09:40:25;9.20;;;6.88;;
68247;SDS011;55064;49.636;12.164;2023-07-09T09:42:54;10.90;;;7.30;;
68247;SDS011;55064;49.636;12.164;2023-07-09T09:45:24;10.55;;;6.38;;
68247;SDS011;55064;49.636;12.164;2023-07-09T09:48:00;9.95;;;6.38;;
68247;SDS011;55064;49.636;12.164;2023-07-09T09:50:27;10.23;;;6.30;;
68247;SDS011;55064;49.636;12.164;2023-07-09T09:52:56;9.47;;;5.83;;
68247;SDS011;55064;49.636;12.164;2023-07-09T09:55:24;11.05;;;7.28;;
68247;SDS011;55064;49.636;12.164;2023-07-09T09:57:55;10.32;;;6.70;;
68247;SDS011;55064;49.636;12.164;2023-07-09T10:00:22;9.40;;;6.47;;
68247;SDS011;55064;49.636;12.164;2023-07-09T10:02:56;11.68;;;7.30;;
68247;SDS011;55064;49.636;12.164;2023-07-09T10:05:48;9.17;;;6.97;;
68247;SDS011;55064;49.636;12.164;2023-07-09T10:11:10;11.68;;;7.75;;
68247;SDS011;55064;49.636;12.164;2023-07-09T10:16:48;9.70;;;7.40;;
68247;SDS011;55064;49.636;12.164;2023-07-09T10:19:21;10.53;;;7.03;;
68247;SDS011;55064;49.636;12.164;2023-07-09T10:22:04;11.85;;;7.60;;
68247;SDS011;55064;49.636;12.164;2023-07-09T10:24:45;10.40;;;7.28;;
68247;SDS011;55064;49.636;12.164;2023-07-09T10:33:34;10.50;;;7.13;;
68247;SDS011;55064;49.636;12.164;2023-07-09T10:39:00;9.23;;;6.60;;
68247;SDS011;55064;49.636;12.164;2023-07-09T10:41:41;9.98;;;6.70;;
68247;SDS011;55064;49.636;12.164;2023-07-09T10:44:15;9.60;;;6.45;;
68247;SDS011;55064;49.636;12.164;2023-07-09T10:46:47;8.63;;;6.85;;
68247;SDS011;55064;49.636;12.164;2023-07-09T10:49:20;8.67;;;6.20;;
68247;SDS011;55064;49.636;12.164;2023-07-09T10:52:01;9.57;;;5.90;;
68247;SDS011;55064;49.636;12.164;2023-07-09T10:54:35;10.35;;;6.10;;
68247;SDS011;55064;49.636;12.164;2023-07-09T10:57:25;10.68;;;6.68;;
68247;SDS011;55064;49.636;12.164;2023-07-09T10:59:55;10.13;;;6.72;;
68247;SDS011;55064;49.636;12.164;2023-07-09T11:02:32;10.13;;;6.93;;
68247;SDS011;55064;49.636;12.164;2023-07-09T11:05:05;10.33;;;7.10;;
68247;SDS011;55064;49.636;12.164;2023-07-09T11:10:52;9.50;;;7.10;;
68247;SDS011;55064;49.636;12.164;2023-07-09T11:19:01;9.15;;;7.05;;
68247;SDS011;55064;49.636;12.164;2023-07-09T11:21:40;9.73;;;6.67;;
68247;SDS011;55064;49.636;12.164;2023-07-09T11:27:32;10.73;;;6.93;;
68247;SDS011;55064;49.636;12.164;2023-07-09T11:30:03;11.02;;;6.50;;
68247;SDS011;55064;49.636;12.164;2023-07-09T11:35:54;10.27;;;6.50;;
68247;SDS011;55064;49.636;12.164;2023-07-09T11:38:46;9.67;;;6.00;;
68247;SDS011;55064;49.636;12.164;2023-07-09T11:44:21;10.43;;;6.55;;
68247;SDS011;55064;49.636;12.164;2023-07-09T11:52:36;9.30;;;6.50;;
68247;SDS011;55064;49.636;12.164;2023-07-09T11:57:55;11.43;;;6.85;;
68247;SDS011;55064;49.636;12.164;2023-07-09T12:00:25;10.27;;;6.47;;
68247;SDS011;55064;49.636;12.164;2023-07-09T12:02:55;10.60;;;6.00;;
68247;SDS011;55064;49.636;12.164;2023-07-09T12:05:29;8.70;;;6.30;;
68247;SDS011;55064;49.636;12.164;2023-07-09T12:08:00;10.03;;;6.50;;
68247;SDS011;55064;49.636;12.164;2023-07-09T12:10:32;8.70;;;6.07;;
68247;SDS011;55064;49.636;12.164;2023-07-09T12:13:01;9.65;;;6.03;;
68247;SDS011;55064;49.636;12.164;2023-07-09T12:15:29;9.75;;;5.90;;
68247;SDS011;55064;49.636;12.164;2023-07-09T12:17:59;9.00;;;5.78;;
68247;SDS011;55064;49.636;12.164;2023-07-09T12:20:29;8.80;;;5.80;;
68247;SDS011;55064;49.636;12.164;2023-07-09T12:22:56;10.63;;;6.00;;
68247;SDS011;55064;49.636;12.164;2023-07-09T12:25:24;10.97;;;5.77;;
68247;SDS011;55064;49.636;12.164;2023-07-09T12:27:51;10.23;;;6.35;;
68247;SDS011;55064;49.636;12.164;2023-07-09T12:30:17;10.87;;;6.70;;
68247;SDS011;55064;49.636;12.164;2023-07-09T12:32:44;9.40;;;6.40;;
68247;SDS011;55064;49.636;12.164;2023-07-09T12:35:14;12.68;;;7.72;;
68247;SDS011;55064;49.636;12.164;2023-07-09T12:37:40;9.80;;;6.03;;
68247;SDS011;55064;49.636;12.164;2023-07-09T12:40:11;9.20;;;6.43;;
68247;SDS011;55064;49.636;12.164;2023-07-09T12:42:42;9.67;;;6.13;;
68247;SDS011;55064;49.636;12.164;2023-07-09T12:45:30;9.43;;;6.70;;
68247;SDS011;55064;49.636;12.164;2023-07-09T12:47:59;9.48;;;5.97;;
68247;SDS011;55064;49.636;12.164;2023-07-09T12:50:34;10.18;;;6.68;;
68247;SDS011;55064;49.636;12.164;2023-07-09T12:53:10;8.70;;;6.17;;
68247;SDS011;55064;49.636;12.164;2023-07-09T12:55:40;11.45;;;6.50;;
68247;SDS011;55064;49.636;12.164;2023-07-09T12:58:09;11.45;;;7.18;;
68247;SDS011;55064;49.636;12.164;2023-07-09T13:00:47;10.73;;;6.25;;
68247;SDS011;55064;49.636;12.164;2023-07-09T13:03:20;10.70;;;5.80;;
68247;SDS011;55064;49.636;12.164;2023-07-09T13:05:54;10.50;;;6.67;;
68247;SDS011;55064;49.636;12.164;2023-07-09T13:08:31;13.27;;;6.60;;
68247;SDS011;55064;49.636;12.164;2023-07-09T13:11:13;9.57;;;5.85;;
68247;SDS011;55064;49.636;12.164;2023-07-09T13:13:40;8.95;;;6.35;;
68247;SDS011;55064;49.636;12.164;2023-07-09T13:16:07;9.17;;;5.53;;
68247;SDS011;55064;49.636;12.164;2023-07-09T13:18:32;10.93;;;6.55;;
68247;SDS011;55064;49.636;12.164;2023-07-09T13:20:58;9.77;;;6.03;;
68247;SDS011;55064;49.636;12.164;2023-07-09T13:23:26;9.15;;;7.05;;
68247;SDS011;55064;49.636;12.164;2023-07-09T13:25:53;8.98;;;5.93;;
68247;SDS011;55064;49.636;12.164;2023-07-09T13:28:24;10.20;;;6.13;;
68247;SDS011;55064;49.636;12.164;2023-07-09T13:30:58;11.15;;;6.53;;
68247;SDS011;55064;49.636;12.164;2023-07-09T13:33:27;9.63;;;6.13;;
68247;SDS011;55064;49.636;12.164;2023-07-09T13:35:54;10.18;;;5.90;;
68247;SDS011;55064;49.636;12.164;2023-07-09T13:38:20;11.37;;;6.60;;
68247;SDS011;55064;49.636;12.164;2023-07-09T13:40:53;9.95;;;6.45;;
68247;SDS011;55064;49.636;12.164;2023-07-09T13:43:31;11.02;;;6.40;;
68247;SDS011;55064;49.636;12.164;2023-07-09T13:45:59;9.07;;;6.13;;
68247;SDS011;55064;49.636;12.164;2023-07-09T13:48:28;13.20;;;6.53;;
68247;SDS011;55064;49.636;12.164;2023-07-09T13:50:55;8.25;;;5.78;;
68247;SDS011;55064;49.636;12.164;2023-07-09T13:53:22;9.30;;;6.00;;
68247;SDS011;55064;49.636;12.164;2023-07-09T13:55:50;12.10;;;6.50;;
68247;SDS011;55064;49.636;12.164;2023-07-09T13:58:17;9.32;;;5.80;;
68247;SDS011;55064;49.636;12.164;2023-07-09T14:00:45;9.97;;;6.20;;
68247;SDS011;55064;49.636;12.164;2023-07-09T14:03:23;8.47;;;5.90;;
68247;SDS011;55064;49.636;12.164;2023-07-09T14:05:52;9.65;;;5.90;;
68247;SDS011;55064;49.636;12.164;2023-07-09T14:08:18;9.13;;;6.07;;
68247;SDS011;55064;49.636;12.164;2023-07-09T14:10:47;10.40;;;5.88;;
68247;SDS011;55064;49.636;12.164;2023-07-09T14:13:16;7.68;;;5.65;;
68247;SDS011;55064;49.636;12.164;2023-07-09T14:15:46;8.90;;;6.10;;
68247;SDS011;55064;49.636;12.164;2023-07-09T14:18:15;10.83;;;6.30;;
68247;SDS011;55064;49.636;12.164;2023-07-09T14:20:42;10.88;;;6.13;;
68247;SDS011;55064;49.636;12.164;2023-07-09T14:23:10;9.48;;;6.22;;
68247;SDS011;55064;49.636;12.164;2023-07-09T14:25:37;10.52;;;6.95;;
68247;SDS011;55064;49.636;12.164;2023-07-09T14:28:04;9.02;;;6.00;;
68247;SDS011;55064;49.636;12.164;2023-07-09T14:30:33;8.30;;;6.10;;
68247;SDS011;55064;49.636;12.164;2023-07-09T14:33:02;8.95;;;6.25;;
68247;SDS011;55064;49.636;12.164;2023-07-09T14:35:28;10.33;;;6.27;;
68247;SDS011;55064;49.636;12.164;2023-07-09T14:37:54;9.03;;;6.53;;
68247;SDS011;55064;49.636;12.164;2023-07-09T14:40:19;8.98;;;5.72;;
68247;SDS011;55064;49.636;12.164;2023-07-09T14:42:46;7.87;;;5.50;;
68247;SDS011;55064;49.636;12.164;2023-07-09T14:47:49;11.30;;;6.60;;
68247;SDS011;55064;49.636;12.164;2023-07-09T14:50:16;9.23;;;6.30;;
68247;SDS011;55064;49.636;12.164;2023-07-09T14:52:44;8.75;;;6.22;;
68247;SDS011;55064;49.636;12.164;2023-07-09T14:55:15;9.38;;;6.03;;
68247;SDS011;55064;49.636;12.164;2023-07-09T14:57:40;10.43;;;6.30;;
68247;SDS011;55064;49.636;12.164;2023-07-09T15:00:06;11.63;;;6.43;;
68247;SDS011;55064;49.636;12.164;2023-07-09T15:02:37;9.65;;;6.47;;
68247;SDS011;55064;49.636;12.164;2023-07-09T15:05:09;10.33;;;5.70;;
68247;SDS011;55064;49.636;12.164;2023-07-09T15:07:38;11.53;;;6.13;;
68247;SDS011;55064;49.636;12.164;2023-07-09T15:10:04;9.80;;;6.07;;
68247;SDS011;55064;49.636;12.164;2023-07-09T15:12:33;8.43;;;6.03;;
68247;SDS011;55064;49.636;12.164;2023-07-09T15:15:11;9.23;;;5.70;;
68247;SDS011;55064;49.636;12.164;2023-07-09T15:17:42;10.52;;;6.35;;
68247;SDS011;55064;49.636;12.164;2023-07-09T15:20:12;8.07;;;5.53;;
68247;SDS011;55064;49.636;12.164;2023-07-09T15:22:48;9.50;;;5.88;;
68247;SDS011;55064;49.636;12.164;2023-07-09T15:25:15;11.65;;;5.80;;
68247;SDS011;55064;49.636;12.164;2023-07-09T15:27:44;9.98;;;5.97;;
68247;SDS011;55064;49.636;12.164;2023-07-09T15:30:11;9.03;;;5.83;;
68247;SDS011;55064;49.636;12.164;2023-07-09T15:32:43;10.37;;;6.03;;
68247;SDS011;55064;49.636;12.164;2023-07-09T15:35:09;9.30;;;5.70;;
68247;SDS011;55064;49.636;12.164;2023-07-09T15:37:36;10.90;;;5.75;;
68247;SDS011;55064;49.636;12.164;2023-07-09T15:43:02;9.23;;;5.77;;
68247;SDS011;55064;49.636;12.164;2023-07-09T15:45:30;9.77;;;5.72;;
68247;SDS011;55064;49.636;12.164;2023-07-09T15:47:58;8.65;;;5.30;;
68247;SDS011;55064;49.636;12.164;2023-07-09T15:50:25;8.37;;;4.97;;
68247;SDS011;55064;49.636;12.164;2023-07-09T15:52:53;8.40;;;5.95;;
68247;SDS011;55064;49.636;12.164;2023-07-09T15:55:22;9.07;;;5.13;;
68247;SDS011;55064;49.636;12.164;2023-07-09T15:57:52;9.00;;;6.00;;
68247;SDS011;55064;49.636;12.164;2023-07-09T16:02:54;9.47;;;6.17;;
68247;SDS011;55064;49.636;12.164;2023-07-09T16:07:50;8.30;;;5.65;;
68247;SDS011;55064;49.636;12.164;2023-07-09T16:10:16;9.90;;;5.50;;
68247;SDS011;55064;49.636;12.164;2023-07-09T16:12:46;10.65;;;5.93;;